sensor_id;sensor_type;location;lat;lon;timestamp;P1;durP1;ratioP1;P2;durP2;ratioP2
9264;SDS011;4669;49.594;10.958;2024-01-15T05:30:18;28.43;;;16.87;;
9264;SDS011;4669;49.594;10.958;2024-01-15T05:35:20;33.03;;;17.57;;
9264;SDS011;4669;49.594;10.958;2024-01-15T05:40:22;30.77;;;16.80;;
9264;SDS011;4669;49.594;10.958;2024-01-15T05:45:25;33.73;;;17.70;;
9264;SDS011;4669;49.594;10.958;2024-01-15T05:50:27;33.93;;;17.47;;
9264;SDS011;4669;49.594;10.958;2024-01-15T05:55:29;28.63;;;16.30;;
9264;SDS011;4669;49.594;10.958;2024-01-15T06:00:33;33.03;;;16.63;;
9264;SDS011;4669;49.594;10.958;2024-01-15T06:05:36;31.90;;;17.47;;
9264;SDS011;4669;49.594;10.958;2024-01-15T06:10:38;34.90;;;17.37;;
9264;SDS011;4669;49.594;10.958;2024-01-15T06:15:41;34.77;;;17.90;;
9264;SDS011;4669;49.594;10.958;2024-01-15T06:20:43;34.20;;;18.40;;
9264;SDS011;4669;49.594;10.958;2024-01-15T06:25:45;30.60;;;17.57;;
9264;SDS011;4669;49.594;10.958;2024-01-15T06:30:49;33.20;;;18.07;;
9264;SDS011;4669;49.594;10.958;2024-01-15T06:35:51;31.30;;;17.00;;
9264;SDS011;4669;49.594;10.958;2024-01-15T06:40:53;32.43;;;17.27;;
9264;SDS011;4669;49.594;10.958;2024-01-15T06:45:56;29.07;;;17.13;;
9264;SDS011;4669;49.594;10.958;2024-01-15T06:50:58;27.07;;;15.93;;
9264;SDS011;4669;49.594;10.958;2024-01-15T06:56:00;26.73;;;15.37;;
9264;SDS011;4669;49.594;10.958;2024-01-15T07:01:04;27.47;;;15.67;;
9264;SDS011;4669;49.594;10.958;2024-01-15T07:06:06;31.53;;;16.13;;
9264;SDS011;4669;49.594;10.958;2024-01-15T07:11:08;28.10;;;16.37;;
9264;SDS011;4669;49.594;10.958;2024-01-15T07:16:11;29.67;;;16.57;;
9264;SDS011;4669;49.594;10.958;2024-01-15T07:21:13;31.93;;;16.50;;
9264;SDS011;4669;49.594;10.958;2024-01-15T07:26:15;31.87;;;16.93;;
9264;SDS011;4669;49.594;10.958;2024-01-15T07:31:19;28.73;;;16.73;;
9264;SDS011;4669;49.594;10.958;2024-01-15T07:36:21;29.73;;;16.17;;
9264;SDS011;4669;49.594;10.958;2024-01-15T07:41:23;30.73;;;16.83;;
9264;SDS011;4669;49.594;10.958;2024-01-15T07:46:27;31.80;;;16.90;;
9264;SDS011;4669;49.594;10.958;2024-01-15T07:51:29;31.33;;;16.17;;
9264;SDS011;4669;49.594;10.958;2024-01-15T07:56:31;28.83;;;16.70;;
9264;SDS011;4669;49.594;10.958;2024-01-15T08:01:34;36.33;;;19.10;;
9264;SDS011;4669;49.594;10.958;2024-01-15T08:06:36;30.17;;;17.50;;
9264;SDS011;4669;49.594;10.958;2024-01-15T08:11:39;33.50;;;17.60;;
9264;SDS011;4669;49.594;10.958;2024-01-15T08:16:44;31.57;;;17.10;;
9264;SDS011;4669;49.594;10.958;2024-01-15T08:21:46;30.60;;;17.23;;
9264;SDS011;4669;49.594;10.958;2024-01-15T08:26:48;27.17;;;15.70;;
9264;SDS011;4669;49.594;10.958;2024-01-15T08:31:51;33.13;;;18.60;;
9264;SDS011;4669;49.594;10.958;2024-01-15T08:36:53;29.73;;;16.93;;
9264;SDS011;4669;49.594;10.958;2024-01-15T08:41:55;30.27;;;16.33;;
9264;SDS011;4669;49.594;10.958;2024-01-15T08:46:59;27.67;;;16.17;;
9264;SDS011;4669;49.594;10.958;2024-01-15T08:52:01;31.25;;;17.05;;
9264;SDS011;4669;49.594;10.958;2024-01-15T08:57:03;30.63;;;17.07;;
9264;SDS011;4669;49.594;10.958;2024-01-15T09:02:06;28.30;;;16.27;;
9264;SDS011;4669;49.594;10.958;2024-01-15T09:07:08;29.47;;;17.00;;
9264;SDS011;4669;49.594;10.958;2024-01-15T09:12:10;31.33;;;18.00;;
9264;SDS011;4669;49.594;10.958;2024-01-15T09:17:17;30.83;;;16.77;;
9264;SDS011;4669;49.594;10.958;2024-01-15T09:22:19;30.42;;;17.50;;
9264;SDS011;4669;49.594;10.958;2024-01-15T09:27:21;25.03;;;14.90;;
9264;SDS011;4669;49.594;10.958;2024-01-15T09:32:24;25.93;;;15.87;;
9264;SDS011;4669;49.594;10.958;2024-01-15T09:37:26;25.43;;;16.60;;
9264;SDS011;4669;49.594;10.958;2024-01-15T09:42:28;27.13;;;15.10;;
9264;SDS011;4669;49.594;10.958;2024-01-15T09:47:31;25.60;;;15.70;;
9264;SDS011;4669;49.594;10.958;2024-01-15T09:52:33;26.60;;;15.83;;
9264;SDS011;4669;49.594;10.958;2024-01-15T09:57:36;27.43;;;15.90;;
9264;SDS011;4669;49.594;10.958;2024-01-15T10:02:41;27.13;;;15.77;;
9264;SDS011;4669;49.594;10.958;2024-01-15T10:07:43;27.50;;;15.80;;
9264;SDS011;4669;49.594;10.958;2024-01-15T10:12:50;24.53;;;14.83;;
9264;SDS011;4669;49.594;10.958;2024-01-15T10:17:53;25.40;;;16.50;;
9264;SDS011;4669;49.594;10.958;2024-01-15T10:22:55;30.13;;;15.83;;
9264;SDS011;4669;49.594;10.958;2024-01-15T10:28:01;25.97;;;15.80;;
9264;SDS011;4669;49.594;10.958;2024-01-15T10:33:05;24.97;;;14.87;;
9264;SDS011;4669;49.594;10.958;2024-01-15T10:38:07;23.30;;;14.40;;
9264;SDS011;4669;49.594;10.958;2024-01-15T10:43:11;22.20;;;14.00;;
9264;SDS011;4669;49.594;10.958;2024-01-15T10:48:15;20.37;;;13.23;;
9264;SDS011;4669;49.594;10.958;2024-01-15T10:53:19;22.27;;;14.03;;
9264;SDS011;4669;49.594;10.958;2024-01-15T10:58:22;19.90;;;12.87;;
9264;SDS011;4669;49.594;10.958;2024-01-15T11:03:27;19.87;;;13.43;;
9264;SDS011;4669;49.594;10.958;2024-01-15T11:08:29;25.47;;;13.27;;
9264;SDS011;4669;49.594;10.958;2024-01-15T11:13:39;21.63;;;13.70;;
9264;SDS011;4669;49.594;10.958;2024-01-15T11:18:48;20.97;;;13.73;;
9264;SDS011;4669;49.594;10.958;2024-01-15T11:24:03;22.52;;;14.75;;
9264;SDS011;4669;49.594;10.958;2024-01-15T11:29:07;21.73;;;14.27;;
9264;SDS011;4669;49.594;10.958;2024-01-15T11:34:13;22.30;;;14.90;;
9264;SDS011;4669;49.594;10.958;2024-01-15T11:44:43;20.90;;;13.37;;
9264;SDS011;4669;49.594;10.958;2024-01-15T11:49:53;20.93;;;13.43;;
9264;SDS011;4669;49.594;10.958;2024-01-15T11:55:07;22.08;;;14.50;;
9264;SDS011;4669;49.594;10.958;2024-01-15T12:00:14;18.83;;;12.70;;
9264;SDS011;4669;49.594;10.958;2024-01-15T12:05:18;22.20;;;14.37;;
9264;SDS011;4669;49.594;10.958;2024-01-15T12:10:22;18.20;;;13.02;;
9264;SDS011;4669;49.594;10.958;2024-01-15T12:15:26;19.50;;;12.70;;
9264;SDS011;4669;49.594;10.958;2024-01-15T12:20:31;17.83;;;13.13;;
9264;SDS011;4669;49.594;10.958;2024-01-15T12:25:34;18.20;;;13.17;;
9264;SDS011;4669;49.594;10.958;2024-01-15T12:30:36;19.10;;;13.27;;
9264;SDS011;4669;49.594;10.958;2024-01-15T12:35:40;17.93;;;12.50;;
9264;SDS011;4669;49.594;10.958;2024-01-15T12:40:43;16.20;;;11.47;;
9264;SDS011;4669;49.594;10.958;2024-01-15T12:45:46;16.03;;;11.97;;
9264;SDS011;4669;49.594;10.958;2024-01-15T12:50:51;16.97;;;12.03;;
9264;SDS011;4669;49.594;10.958;2024-01-15T12:55:53;16.73;;;11.87;;
9264;SDS011;4669;49.594;10.958;2024-01-15T13:00:55;16.40;;;10.90;;
9264;SDS011;4669;49.594;10.958;2024-01-15T13:05:59;14.70;;;11.02;;
9264;SDS011;4669;49.594;10.958;2024-01-15T13:11:01;14.17;;;11.43;;
9264;SDS011;4669;49.594;10.958;2024-01-15T13:16:03;15.33;;;10.80;;
9264;SDS011;4669;49.594;10.958;2024-01-15T13:21:07;15.40;;;11.97;;
9264;SDS011;4669;49.594;10.958;2024-01-15T13:26:09;15.87;;;11.27;;
9264;SDS011;4669;49.594;10.958;2024-01-15T13:31:11;17.27;;;12.13;;
9264;SDS011;4669;49.594;10.958;2024-01-15T13:36:14;16.30;;;11.10;;
9264;SDS011;4669;49.594;10.958;2024-01-15T13:41:16;14.63;;;10.67;;
9264;SDS011;4669;49.594;10.958;2024-01-15T13:46:19;16.03;;;11.27;;
9264;SDS011;4669;49.594;10.958;2024-01-15T13:51:23;15.82;;;11.30;;
9264;SDS011;4669;49.594;10.958;2024-01-15T13:56:25;16.35;;;11.18;;
9264;SDS011;4669;49.594;10.958;2024-01-15T14:01:31;14.00;;;10.38;;
9264;SDS011;4669;49.594;10.958;2024-01-15T14:06:35;12.00;;;9.65;;
9264;SDS011;4669;49.594;10.958;2024-01-15T14:11:37;12.50;;;9.20;;
9264;SDS011;4669;49.594;10.958;2024-01-15T14:16:39;12.67;;;8.37;;
9264;SDS011;4669;49.594;10.958;2024-01-15T14:21:42;11.43;;;8.20;;
9264;SDS011;4669;49.594;10.958;2024-01-15T14:26:44;10.53;;;8.07;;
9264;SDS011;4669;49.594;10.958;2024-01-15T14:31:46;10.93;;;7.87;;
9264;SDS011;4669;49.594;10.958;2024-01-15T14:36:50;11.13;;;8.10;;
9264;SDS011;4669;49.594;10.958;2024-01-15T14:41:53;9.73;;;6.93;;
9264;SDS011;4669;49.594;10.958;2024-01-15T14:46:57;8.43;;;6.87;;
9264;SDS011;4669;49.594;10.958;2024-01-15T14:52:00;8.83;;;7.30;;
9264;SDS011;4669;49.594;10.958;2024-01-15T14:57:03;12.30;;;7.23;;
9264;SDS011;4669;49.594;10.958;2024-01-15T15:02:05;9.17;;;7.20;;
9264;SDS011;4669;49.594;10.958;2024-01-15T15:07:09;11.67;;;8.03;;
9264;SDS011;4669;49.594;10.958;2024-01-15T15:12:11;9.20;;;7.37;;
9264;SDS011;4669;49.594;10.958;2024-01-15T15:17:13;11.60;;;9.03;;
9264;SDS011;4669;49.594;10.958;2024-01-15T15:22:16;12.53;;;8.73;;
9264;SDS011;4669;49.594;10.958;2024-01-15T15:27:19;12.73;;;8.37;;
9264;SDS011;4669;49.594;10.958;2024-01-15T15:32:21;11.53;;;8.20;;
9264;SDS011;4669;49.594;10.958;2024-01-15T15:37:25;12.17;;;9.00;;
9264;SDS011;4669;49.594;10.958;2024-01-15T15:42:27;11.10;;;8.83;;
9264;SDS011;4669;49.594;10.958;2024-01-15T15:47:29;11.00;;;7.60;;
9264;SDS011;4669;49.594;10.958;2024-01-15T15:52:32;10.30;;;8.03;;
9264;SDS011;4669;49.594;10.958;2024-01-15T15:57:34;9.70;;;7.53;;
9264;SDS011;4669;49.594;10.958;2024-01-15T16:02:37;8.57;;;7.50;;
9264;SDS011;4669;49.594;10.958;2024-01-15T16:07:40;10.30;;;8.27;;
9264;SDS011;4669;49.594;10.958;2024-01-15T16:12:42;11.17;;;7.30;;
9264;SDS011;4669;49.594;10.958;2024-01-15T16:17:45;10.37;;;7.67;;
9264;SDS011;4669;49.594;10.958;2024-01-15T16:22:48;11.20;;;8.43;;
9264;SDS011;4669;49.594;10.958;2024-01-15T16:27:50;10.47;;;8.17;;
9264;SDS011;4669;49.594;10.958;2024-01-15T16:32:52;11.33;;;8.03;;
9264;SDS011;4669;49.594;10.958;2024-01-15T16:37:55;10.10;;;7.93;;
9264;SDS011;4669;49.594;10.958;2024-01-15T16:42:57;11.48;;;8.35;;
9264;SDS011;4669;49.594;10.958;2024-01-15T16:47:59;10.80;;;8.17;;
9264;SDS011;4669;49.594;10.958;2024-01-15T16:53:03;13.88;;;8.30;;
9264;SDS011;4669;49.594;10.958;2024-01-15T16:58:05;10.40;;;7.63;;
9264;SDS011;4669;49.594;10.958;2024-01-15T17:03:07;10.73;;;8.47;;
9264;SDS011;4669;49.594;10.958;2024-01-15T17:08:10;10.50;;;8.43;;
9264;SDS011;4669;49.594;10.958;2024-01-15T17:13:12;11.00;;;8.40;;
9264;SDS011;4669;49.594;10.958;2024-01-15T17:18:14;10.93;;;8.07;;
9264;SDS011;4669;49.594;10.958;2024-01-15T17:23:18;10.43;;;7.90;;
9264;SDS011;4669;49.594;10.958;2024-01-15T17:28:20;12.50;;;8.80;;
9264;SDS011;4669;49.594;10.958;2024-01-15T17:33:22;11.23;;;8.60;;
9264;SDS011;4669;49.594;10.958;2024-01-15T17:38:27;11.97;;;8.43;;
9264;SDS011;4669;49.594;10.958;2024-01-15T17:43:29;13.43;;;8.23;;
9264;SDS011;4669;49.594;10.958;2024-01-15T17:48:32;11.43;;;8.63;;
9264;SDS011;4669;49.594;10.958;2024-01-15T17:53:36;12.40;;;8.50;;
9264;SDS011;4669;49.594;10.958;2024-01-15T17:58:38;12.23;;;8.63;;
9264;SDS011;4669;49.594;10.958;2024-01-15T18:03:40;10.63;;;7.63;;
9264;SDS011;4669;49.594;10.958;2024-01-15T18:08:44;10.93;;;9.17;;
9264;SDS011;4669;49.594;10.958;2024-01-15T18:13:46;9.63;;;7.97;;
9264;SDS011;4669;49.594;10.958;2024-01-15T18:18:48;12.37;;;8.73;;
9264;SDS011;4669;49.594;10.958;2024-01-15T18:23:52;12.77;;;9.07;;
9264;SDS011;4669;49.594;10.958;2024-01-15T18:28:54;15.10;;;9.53;;
9264;SDS011;4669;49.594;10.958;2024-01-15T18:33:56;12.70;;;8.80;;
9264;SDS011;4669;49.594;10.958;2024-01-15T18:38:59;12.57;;;8.23;;
9264;SDS011;4669;49.594;10.958;2024-01-15T18:44:06;12.47;;;8.77;;
9264;SDS011;4669;49.594;10.958;2024-01-15T18:49:08;12.88;;;8.23;;
9264;SDS011;4669;49.594;10.958;2024-01-15T18:54:11;13.27;;;7.38;;
9264;SDS011;4669;49.594;10.958;2024-01-15T18:59:13;11.75;;;8.02;;
9264;SDS011;4669;49.594;10.958;2024-01-15T19:04:15;11.05;;;7.78;;
9264;SDS011;4669;49.594;10.958;2024-01-15T19:09:19;10.40;;;6.88;;
9264;SDS011;4669;49.594;10.958;2024-01-15T19:14:21;12.73;;;7.10;;
9264;SDS011;4669;49.594;10.958;2024-01-15T19:19:23;9.07;;;6.63;;
9264;SDS011;4669;49.594;10.958;2024-01-15T19:24:26;10.30;;;6.43;;
9264;SDS011;4669;49.594;10.958;2024-01-15T19:29:28;10.95;;;6.85;;
9264;SDS011;4669;49.594;10.958;2024-01-15T19:34:30;9.38;;;6.22;;
9264;SDS011;4669;49.594;10.958;2024-01-15T19:39:33;9.38;;;6.90;;
9264;SDS011;4669;49.594;10.958;2024-01-15T19:44:35;8.75;;;6.38;;
9264;SDS011;4669;49.594;10.958;2024-01-15T19:49:37;11.47;;;6.90;;
9264;SDS011;4669;49.594;10.958;2024-01-15T19:54:45;14.03;;;6.23;;
9264;SDS011;4669;49.594;10.958;2024-01-15T19:59:47;9.67;;;6.77;;
9264;SDS011;4669;49.594;10.958;2024-01-15T20:04:49;10.60;;;7.13;;
9264;SDS011;4669;49.594;10.958;2024-01-15T20:09:52;8.23;;;6.37;;
9264;SDS011;4669;49.594;10.958;2024-01-15T20:14:54;8.67;;;6.70;;
9264;SDS011;4669;49.594;10.958;2024-01-15T20:19:56;9.70;;;6.93;;
9264;SDS011;4669;49.594;10.958;2024-01-15T20:25:00;8.77;;;6.70;;
9264;SDS011;4669;49.594;10.958;2024-01-15T20:30:02;11.13;;;7.17;;
9264;SDS011;4669;49.594;10.958;2024-01-15T20:35:07;11.60;;;6.90;;
9264;SDS011;4669;49.594;10.958;2024-01-15T20:40:11;11.30;;;7.68;;
9264;SDS011;4669;49.594;10.958;2024-01-15T20:45:13;11.63;;;7.80;;
9264;SDS011;4669;49.594;10.958;2024-01-15T20:50:15;13.13;;;7.20;;
9264;SDS011;4669;49.594;10.958;2024-01-15T20:55:19;9.35;;;7.05;;
9264;SDS011;4669;49.594;10.958;2024-01-15T21:00:21;8.53;;;6.97;;
9264;SDS011;4669;49.594;10.958;2024-01-15T21:05:23;8.65;;;6.93;;
9264;SDS011;4669;49.594;10.958;2024-01-15T21:10:26;8.40;;;7.22;;
9264;SDS011;4669;49.594;10.958;2024-01-15T21:15:28;8.13;;;6.73;;
9264;SDS011;4669;49.594;10.958;2024-01-15T21:20:30;10.20;;;7.05;;
9264;SDS011;4669;49.594;10.958;2024-01-15T21:25:34;9.70;;;7.55;;
9264;SDS011;4669;49.594;10.958;2024-01-15T21:30:36;10.98;;;7.22;;
9264;SDS011;4669;49.594;10.958;2024-01-15T21:35:38;9.10;;;6.97;;
9264;SDS011;4669;49.594;10.958;2024-01-15T21:40:42;9.60;;;6.93;;
9264;SDS011;4669;49.594;10.958;2024-01-15T21:45:44;10.87;;;7.10;;
9264;SDS011;4669;49.594;10.958;2024-01-15T21:50:46;13.63;;;7.67;;
9264;SDS011;4669;49.594;10.958;2024-01-15T21:55:49;11.53;;;8.20;;
9264;SDS011;4669;49.594;10.958;2024-01-15T22:00:51;11.97;;;7.77;;
9264;SDS011;4669;49.594;10.958;2024-01-15T22:05:53;10.25;;;6.82;;
9264;SDS011;4669;49.594;10.958;2024-01-15T22:10:56;10.60;;;6.63;;
9264;SDS011;4669;49.594;10.958;2024-01-15T22:15:58;10.37;;;6.90;;
9264;SDS011;4669;49.594;10.958;2024-01-15T22:21:00;9.60;;;6.77;;
9264;SDS011;4669;49.594;10.958;2024-01-15T22:26:04;10.27;;;6.40;;
9264;SDS011;4669;49.594;10.958;2024-01-15T22:31:07;10.03;;;7.10;;
9264;SDS011;4669;49.594;10.958;2024-01-15T22:36:10;12.40;;;6.93;;
9264;SDS011;4669;49.594;10.958;2024-01-15T22:41:13;10.35;;;6.60;;
9264;SDS011;4669;49.594;10.958;2024-01-15T22:46:15;7.63;;;6.17;;
9264;SDS011;4669;49.594;10.958;2024-01-15T22:51:17;11.73;;;6.07;;
9264;SDS011;4669;49.594;10.958;2024-01-15T22:56:21;13.40;;;5.47;;
